Time;durP1;ratioP1;P1;durP2;ratioP2;P2;SDS_P1;SDS_P2;PMS_P1;PMS_P2;Temp;Humidity;BMP_temperature;BMP_pressure;BME280_temperature;BME280_humidity;BME280_pressure;Samples;Min_cycle;Max_cycle;Signal;HPM_P1;HPM_P2
2022/03/29 00:01:04;;;;;;;28.92;17.42;;;6.80;99.90;;;;;;4998501;28;20059;-90
2022/03/29 00:03:30;;;;;;;29.55;16.77;;;6.80;99.90;;;;;;5031401;28;20548;-90
2022/03/29 00:05:56;;;;;;;29.83;17.30;;;6.80;99.90;;;;;;4988939;28;20124;-89
2022/03/29 00:08:22;;;;;;;28.65;17.92;;;6.80;99.90;;;;;;5012190;28;20798;-88
2022/03/29 00:10:48;;;;;;;26.98;17.38;;;6.80;99.90;;;;;;5013030;28;20053;-87
2022/03/29 00:13:14;;;;;;;29.15;18.48;;;6.90;99.90;;;;;;5010211;28;20056;-87
2022/03/29 00:15:40;;;;;;;28.58;17.83;;;6.80;99.90;;;;;;5027047;28;20054;-88
2022/03/29 00:18:05;;;;;;;30.58;19.00;;;6.80;99.90;;;;;;5026995;28;20045;-88
2022/03/29 00:20:31;;;;;;;29.70;19.33;;;6.80;99.90;;;;;;5013407;28;20136;-88
2022/03/29 00:22:57;;;;;;;35.75;19.73;;;6.90;99.90;;;;;;5028172;28;20168;-88
2022/03/29 00:25:22;;;;;;;31.15;18.73;;;6.90;99.90;;;;;;5027893;28;20041;-88
2022/03/29 00:27:49;;;;;;;33.60;20.50;;;6.80;99.90;;;;;;4989015;28;20049;-87
2022/03/29 00:30:16;;;;;;;31.05;19.65;;;6.80;99.90;;;;;;5005128;28;20062;-87
2022/03/29 00:32:43;;;;;;;32.67;19.83;;;6.80;99.90;;;;;;5032361;28;20644;-88
2022/03/29 00:35:09;;;;;;;36.33;20.70;;;6.90;99.90;;;;;;5028797;28;20061;-87
2022/03/29 00:37:36;;;;;;;34.92;20.70;;;6.80;99.90;;;;;;5011283;28;20045;-86
2022/03/29 00:40:03;;;;;;;36.72;20.85;;;6.90;99.90;;;;;;5029042;28;20137;-88
2022/03/29 00:42:29;;;;;;;31.35;19.85;;;6.80;99.90;;;;;;5013310;28;20128;-87
2022/03/29 00:44:56;;;;;;;30.33;18.98;;;6.80;99.90;;;;;;4995780;28;20045;-88
2022/03/29 00:47:22;;;;;;;32.88;20.00;;;6.80;99.90;;;;;;5023893;28;20494;-87
2022/03/29 00:49:48;;;;;;;36.28;20.42;;;6.90;99.90;;;;;;5023727;28;20100;-87
2022/03/29 00:52:15;;;;;;;31.88;19.52;;;7.00;99.90;;;;;;5027920;28;20057;-87
2022/03/29 00:54:43;;;;;;;36.75;22.38;;;6.80;99.90;;;;;;5025682;28;20441;-87
2022/03/29 00:57:11;;;;;;;34.10;19.67;;;6.80;99.90;;;;;;5033215;28;20051;-86
2022/03/29 00:59:38;;;;;;;40.40;21.25;;;6.90;99.90;;;;;;5029861;28;20516;-89
2022/03/29 01:02:05;;;;;;;35.63;21.45;;;6.90;99.90;;;;;;5012722;28;20053;-88
2022/03/29 01:04:31;;;;;;;32.80;20.17;;;6.80;99.90;;;;;;5014606;28;20535;-88
2022/03/29 01:06:58;;;;;;;35.70;20.45;;;6.80;99.90;;;;;;4996327;28;20103;-88
2022/03/29 01:09:29;;;;;;;32.92;20.50;;;6.90;99.90;;;;;;5029692;28;20073;-89
2022/03/29 01:11:55;;;;;;;38.85;21.05;;;6.80;99.90;;;;;;5011923;28;20072;-89
2022/03/29 01:14:22;;;;;;;33.92;19.77;;;6.80;99.90;;;;;;5030239;28;20049;-88
2022/03/29 01:19:35;;;;;;;33.90;19.98;;;6.70;99.90;;;;;;5025913;28;20057;-88
2022/03/29 01:22:07;;;;;;;36.35;20.73;;;6.80;99.90;;;;;;5012061;28;20053;-88
2022/03/29 01:24:36;;;;;;;32.15;19.85;;;6.80;99.90;;;;;;5029597;28;20124;-87
2022/03/29 01:27:04;;;;;;;34.58;19.83;;;6.80;99.90;;;;;;5028138;28;20049;-87
2022/03/29 01:29:31;;;;;;;35.22;19.17;;;6.80;99.90;;;;;;5027729;28;20045;-88
2022/03/29 01:31:58;;;;;;;34.10;19.60;;;6.90;99.90;;;;;;5004675;28;20052;-88
2022/03/29 01:34:25;;;;;;;33.80;19.55;;;6.80;99.90;;;;;;5027907;28;20053;-88
2022/03/29 01:36:50;;;;;;;34.30;18.88;;;6.70;99.90;;;;;;5015385;28;20132;-88
2022/03/29 01:39:16;;;;;;;36.83;19.27;;;6.80;99.90;;;;;;5000224;28;20543;-87
2022/03/29 01:41:42;;;;;;;35.50;19.40;;;6.80;99.90;;;;;;5033278;28;20052;-88
2022/03/29 01:44:10;;;;;;;37.58;19.42;;;6.80;99.90;;;;;;5013794;28;20041;-87
2022/03/29 01:46:35;;;;;;;38.28;19.05;;;6.80;99.90;;;;;;5016611;28;20052;-88
2022/03/29 01:49:02;;;;;;;35.42;19.20;;;6.70;99.90;;;;;;5016171;28;20108;-88
2022/03/29 01:51:28;;;;;;;32.85;19.42;;;6.70;99.90;;;;;;5016559;28;20045;-88
2022/03/29 01:53:55;;;;;;;38.28;20.42;;;6.70;99.90;;;;;;5030876;28;20569;-87
2022/03/29 01:56:22;;;;;;;37.83;20.63;;;6.60;99.90;;;;;;5032378;28;20183;-87
2022/03/29 01:58:48;;;;;;;36.78;20.80;;;6.60;99.90;;;;;;5000226;28;20045;-88
2022/03/29 02:01:13;;;;;;;35.45;20.50;;;6.60;99.90;;;;;;5019024;28;20493;-87
2022/03/29 02:03:39;;;;;;;36.55;22.25;;;6.70;99.90;;;;;;5032981;28;20048;-88
2022/03/29 02:06:05;;;;;;;35.65;20.85;;;6.70;99.90;;;;;;5015970;28;20070;-88
2022/03/29 02:08:31;;;;;;;31.75;18.50;;;6.70;99.90;;;;;;5032204;28;20060;-88
2022/03/29 02:10:56;;;;;;;33.13;20.70;;;6.70;99.90;;;;;;5012543;28;20090;-88
2022/03/29 02:13:22;;;;;;;33.00;19.98;;;6.70;99.90;;;;;;5000181;28;20128;-88
2022/03/29 02:15:48;;;;;;;36.53;20.17;;;6.70;99.90;;;;;;5016550;28;20071;-88
2022/03/29 02:18:15;;;;;;;39.38;20.63;;;6.70;99.90;;;;;;5012040;28;20077;-88
2022/03/29 02:20:41;;;;;;;34.53;19.73;;;6.70;99.90;;;;;;5029441;28;20417;-88
2022/03/29 02:23:08;;;;;;;34.85;19.75;;;6.70;99.90;;;;;;5018465;28;20052;-87
2022/03/29 02:25:35;;;;;;;38.63;20.13;;;6.70;99.90;;;;;;5032502;28;20037;-88
2022/03/29 02:28:03;;;;;;;33.50;19.95;;;6.80;99.90;;;;;;5032742;28;20402;-88
2022/03/29 02:30:30;;;;;;;36.58;19.52;;;6.80;99.90;;;;;;5029411;28;20132;-88
2022/03/29 02:32:56;;;;;;;36.28;20.20;;;6.80;99.90;;;;;;5016943;28;20136;-88
2022/03/29 02:35:21;;;;;;;35.63;21.75;;;6.80;99.90;;;;;;5016308;28;20127;-88
2022/03/29 02:37:47;;;;;;;38.58;21.60;;;6.90;99.90;;;;;;4999470;28;20136;-89
2022/03/29 02:40:13;;;;;;;33.70;19.90;;;6.90;99.90;;;;;;5032059;28;20041;-87
2022/03/29 02:42:46;;;;;;;34.40;20.23;;;6.80;99.90;;;;;;5017891;28;20045;-87
2022/03/29 02:45:15;;;;;;;43.15;22.45;;;6.90;99.90;;;;;;5026206;28;20037;-88
2022/03/29 02:47:42;;;;;;;37.28;20.75;;;6.80;99.90;;;;;;5017040;28;20048;-88
2022/03/29 02:50:08;;;;;;;35.85;20.88;;;6.80;99.90;;;;;;5019330;28;20048;-88
2022/03/29 02:52:41;;;;;;;38.10;21.05;;;6.80;99.90;;;;;;4999157;28;20132;-88
2022/03/29 02:55:07;;;;;;;40.35;21.52;;;6.80;99.90;;;;;;5027128;28;20059;-88
2022/03/29 02:57:32;;;;;;;36.03;21.15;;;6.80;99.90;;;;;;5033445;28;20057;-87
2022/03/29 02:59:58;;;;;;;37.45;21.05;;;6.90;99.90;;;;;;5035981;28;20171;-88
2022/03/29 03:02:24;;;;;;;38.35;21.67;;;6.90;99.90;;;;;;5035090;28;20800;-89
2022/03/29 03:04:50;;;;;;;36.22;20.45;;;6.90;99.90;;;;;;5003241;28;20044;-89
2022/03/29 03:07:15;;;;;;;36.22;21.15;;;6.90;99.90;;;;;;5018725;28;20485;-89
2022/03/29 03:09:41;;;;;;;36.92;22.33;;;6.90;99.90;;;;;;5014849;28;20041;-89
2022/03/29 03:12:08;;;;;;;43.38;22.55;;;6.90;99.90;;;;;;5018681;28;20079;-89
2022/03/29 03:14:33;;;;;;;40.60;21.83;;;6.90;99.90;;;;;;5001945;28;20044;-90
2022/03/29 03:16:59;;;;;;;37.60;21.58;;;6.90;99.90;;;;;;5036976;28;20053;-88
2022/03/29 03:19:25;;;;;;;36.63;21.33;;;6.90;99.90;;;;;;5016321;28;20048;-88
2022/03/29 03:21:50;;;;;;;39.05;21.55;;;6.90;99.90;;;;;;5003274;28;20045;-88
2022/03/29 03:24:17;;;;;;;38.30;22.30;;;6.90;99.90;;;;;;5007402;28;20072;-87
2022/03/29 03:26:43;;;;;;;41.15;22.23;;;7.00;99.90;;;;;;5035040;28;20076;-88
2022/03/29 03:29:08;;;;;;;34.88;20.83;;;7.00;99.90;;;;;;5031552;28;20076;-88
2022/03/29 03:31:34;;;;;;;36.42;21.63;;;7.00;99.90;;;;;;5047988;28;20124;-88
2022/03/29 03:34:00;;;;;;;34.80;20.10;;;7.00;99.90;;;;;;5037726;28;20069;-88
2022/03/29 03:36:27;;;;;;;36.45;20.92;;;7.00;99.90;;;;;;5023009;28;20043;-88
2022/03/29 03:38:53;;;;;;;37.55;21.95;;;7.00;99.90;;;;;;5015887;28;20099;-88
2022/03/29 03:41:19;;;;;;;42.08;21.83;;;7.00;99.90;;;;;;5016483;28;20428;-88
2022/03/29 03:43:44;;;;;;;37.72;21.20;;;7.00;99.90;;;;;;5019062;28;20502;-88
2022/03/29 03:46:10;;;;;;;40.30;22.13;;;7.00;99.90;;;;;;5002402;28;20405;-89
2022/03/29 03:48:36;;;;;;;36.40;21.90;;;7.00;99.90;;;;;;5042179;28;20333;-88
2022/03/29 03:51:02;;;;;;;42.63;21.77;;;6.90;99.90;;;;;;5001671;28;20040;-87
2022/03/29 03:53:29;;;;;;;35.92;22.08;;;7.00;99.90;;;;;;5017351;28;20045;-88
2022/03/29 03:55:54;;;;;;;38.47;21.42;;;7.00;99.90;;;;;;5002094;28;20128;-88
2022/03/29 03:58:20;;;;;;;38.53;21.85;;;7.10;99.90;;;;;;5016901;28;20190;-88
2022/03/29 04:00:46;;;;;;;40.60;22.70;;;7.00;99.90;;;;;;5018564;28;20053;-87
2022/03/29 04:03:11;;;;;;;38.65;22.38;;;7.00;99.90;;;;;;5029960;28;20047;-88
2022/03/29 04:05:38;;;;;;;42.53;22.65;;;6.90;99.90;;;;;;5004742;28;20049;-88
2022/03/29 04:08:04;;;;;;;39.42;22.25;;;7.00;99.90;;;;;;4985710;28;20045;-87
2022/03/29 04:10:31;;;;;;;43.95;21.67;;;6.90;99.90;;;;;;5016190;28;20124;-88
2022/03/29 04:12:56;;;;;;;40.17;22.60;;;6.90;99.90;;;;;;5015550;28;20103;-87
2022/03/29 04:15:22;;;;;;;42.58;22.73;;;6.90;99.90;;;;;;5017421;28;20092;-89
2022/03/29 04:17:48;;;;;;;38.33;22.75;;;7.00;99.90;;;;;;5002645;28;20496;-88
2022/03/29 04:20:13;;;;;;;42.90;22.30;;;7.00;99.90;;;;;;4996071;28;20033;-88
2022/03/29 04:22:39;;;;;;;39.30;22.00;;;6.90;99.90;;;;;;5027226;28;20041;-88
2022/03/29 04:25:06;;;;;;;44.95;23.67;;;6.90;99.90;;;;;;5017629;28;20536;-88
2022/03/29 04:27:31;;;;;;;41.72;22.05;;;6.90;99.90;;;;;;5014410;28;20040;-88
2022/03/29 04:29:57;;;;;;;42.92;23.15;;;6.90;99.90;;;;;;5017672;28;20041;-88
2022/03/29 04:32:23;;;;;;;46.03;22.08;;;6.90;99.90;;;;;;5017600;28;20053;-89
2022/03/29 04:34:49;;;;;;;43.25;23.05;;;6.90;99.90;;;;;;5033171;28;20494;-88
2022/03/29 04:37:15;;;;;;;39.55;23.80;;;6.90;99.90;;;;;;5001593;28;20098;-89
2022/03/29 04:39:41;;;;;;;42.17;22.45;;;6.90;99.90;;;;;;5033785;28;20054;-87
2022/03/29 04:42:07;;;;;;;46.10;23.42;;;6.80;99.90;;;;;;5013243;28;20060;-88
2022/03/29 04:44:34;;;;;;;41.63;21.88;;;6.80;99.90;;;;;;5033416;28;20037;-86
2022/03/29 04:47:00;;;;;;;45.53;22.83;;;6.80;99.90;;;;;;5030325;28;20053;-89
2022/03/29 04:49:26;;;;;;;40.20;21.85;;;6.90;99.90;;;;;;5020723;28;20105;-87
2022/03/29 04:51:51;;;;;;;39.90;21.92;;;6.80;99.90;;;;;;5016618;28;20045;-88
2022/03/29 04:54:17;;;;;;;40.83;22.45;;;6.80;99.90;;;;;;5040033;28;20048;-87
2022/03/29 04:56:43;;;;;;;43.03;22.33;;;6.80;99.90;;;;;;5016054;28;20049;-88
2022/03/29 04:59:09;;;;;;;37.65;21.40;;;6.70;99.90;;;;;;5017908;28;20033;-88
2022/03/29 05:01:36;;;;;;;39.08;22.02;;;6.70;99.90;;;;;;5014631;28;20033;-86
2022/03/29 05:04:03;;;;;;;42.35;21.95;;;6.70;99.90;;;;;;4983254;28;20063;-88
2022/03/29 05:06:28;;;;;;;44.40;22.52;;;6.70;99.90;;;;;;4998447;28;20056;-89
2022/03/29 05:08:54;;;;;;;42.45;22.40;;;6.70;99.90;;;;;;4997676;28;20042;-87
2022/03/29 05:11:20;;;;;;;37.22;21.90;;;6.80;99.90;;;;;;5015794;28;20055;-87
2022/03/29 05:13:45;;;;;;;42.15;22.45;;;6.70;99.90;;;;;;5009508;28;20079;-89
2022/03/29 05:16:11;;;;;;;45.33;22.60;;;6.70;99.90;;;;;;4999329;28;20123;-89
2022/03/29 05:18:37;;;;;;;46.20;22.27;;;6.70;99.90;;;;;;5016546;28;20049;-87
2022/03/29 05:21:02;;;;;;;43.13;22.13;;;6.70;99.90;;;;;;5015987;28;20044;-86
2022/03/29 05:23:28;;;;;;;42.20;22.90;;;6.70;99.90;;;;;;5000311;28;20129;-87
2022/03/29 05:25:54;;;;;;;49.53;22.45;;;6.70;99.90;;;;;;5028876;28;20037;-87
2022/03/29 05:28:19;;;;;;;43.78;22.33;;;6.80;99.90;;;;;;5000704;28;20037;-87
2022/03/29 05:30:45;;;;;;;41.35;22.55;;;6.70;99.90;;;;;;5020628;28;20056;-89
2022/03/29 05:33:16;;;;;;;41.88;21.95;;;6.70;99.90;;;;;;5029072;28;20544;-92
2022/03/29 05:35:43;;;;;;;48.42;22.30;;;6.70;99.90;;;;;;5000096;28;20049;-88
2022/03/29 05:38:09;;;;;;;44.95;22.58;;;6.80;99.90;;;;;;5031059;28;20072;-90
2022/03/29 05:40:35;;;;;;;44.80;22.15;;;6.80;99.90;;;;;;5012533;28;20076;-92
2022/03/29 05:43:01;;;;;;;44.13;23.08;;;6.80;99.90;;;;;;5013158;28;20147;-92
2022/03/29 05:45:29;;;;;;;38.80;21.90;;;6.80;99.90;;;;;;5015701;28;20110;-89
2022/03/29 05:50:39;;;;;;;44.70;22.85;;;6.80;99.90;;;;;;5023322;28;20048;-88
2022/03/29 05:53:05;;;;;;;44.55;22.63;;;6.80;99.90;;;;;;5011761;28;20049;-90
2022/03/29 05:55:31;;;;;;;39.33;21.73;;;6.90;99.90;;;;;;5013961;28;20053;-87
2022/03/29 05:57:56;;;;;;;41.22;21.45;;;6.90;99.90;;;;;;5016066;28;20437;-89
2022/03/29 06:00:23;;;;;;;38.95;21.48;;;6.90;99.90;;;;;;5028478;28;20045;-89
2022/03/29 06:02:53;;;;;;;45.85;23.30;;;6.90;99.90;;;;;;5016529;28;20090;-90
2022/03/29 06:05:22;;;;;;;42.80;22.25;;;6.90;99.90;;;;;;5016893;28;20081;-89
2022/03/29 06:07:47;;;;;;;44.30;22.98;;;7.00;99.90;;;;;;5032699;28;20490;-90
2022/03/29 06:10:13;;;;;;;46.38;23.98;;;7.00;99.90;;;;;;5017607;28;20041;-88
2022/03/29 06:12:39;;;;;;;46.00;23.08;;;7.10;99.90;;;;;;5016656;28;20571;-90
2022/03/29 06:15:08;;;;;;;41.63;22.10;;;7.10;99.90;;;;;;5000767;28;20064;-90
2022/03/29 06:17:35;;;;;;;43.85;21.73;;;7.10;99.90;;;;;;5004487;28;20041;-90
2022/03/29 06:20:06;;;;;;;41.10;23.75;;;7.10;99.90;;;;;;5036887;28;20045;-88
2022/03/29 06:22:32;;;;;;;46.08;23.20;;;7.20;99.90;;;;;;5020421;28;20044;-90
2022/03/29 06:24:58;;;;;;;42.88;22.20;;;7.20;99.90;;;;;;5020425;28;20049;-90
2022/03/29 06:27:28;;;;;;;42.30;22.58;;;7.30;99.90;;;;;;5004713;28;20078;-90
2022/03/29 06:29:57;;;;;;;44.53;23.33;;;7.30;99.90;;;;;;5037369;28;20106;-88
2022/03/29 06:32:47;;;;;;;45.22;22.92;;;7.40;99.90;;;;;;5016270;28;20083;-90
2022/03/29 06:35:13;;;;;;;39.05;21.65;;;7.40;99.90;;;;;;5016732;28;20061;-87
2022/03/29 06:37:42;;;;;;;45.47;22.67;;;7.40;99.90;;;;;;5012782;28;20117;-87
2022/03/29 06:40:08;;;;;;;44.33;23.80;;;7.40;99.90;;;;;;5033074;28;20067;-85
2022/03/29 06:42:34;;;;;;;45.20;22.73;;;7.50;99.90;;;;;;5032542;28;20131;-90
2022/03/29 06:45:00;;;;;;;45.40;22.17;;;7.50;99.90;;;;;;5011292;28;20136;-89
2022/03/29 06:47:25;;;;;;;45.25;23.13;;;7.60;99.90;;;;;;5003416;28;20111;-89
2022/03/29 06:49:52;;;;;;;38.97;22.85;;;7.60;99.90;;;;;;4976557;28;20132;-90
2022/03/29 06:52:18;;;;;;;42.17;22.75;;;7.60;99.90;;;;;;5030871;28;20056;-89
2022/03/29 06:54:44;;;;;;;43.28;22.77;;;7.70;99.90;;;;;;5019000;28;20132;-88
2022/03/29 06:57:14;;;;;;;42.72;22.52;;;7.80;99.90;;;;;;5003488;28;20049;-90
2022/03/29 06:59:42;;;;;;;41.92;22.63;;;7.80;99.90;;;;;;5032248;28;20155;-89
2022/03/29 07:02:11;;;;;;;47.25;22.67;;;7.90;99.90;;;;;;5018671;28;20056;-89
2022/03/29 07:04:37;;;;;;;43.60;22.55;;;7.90;99.90;;;;;;5025342;28;20072;-89
2022/03/29 07:07:04;;;;;;;45.30;22.17;;;8.00;99.90;;;;;;5038971;28;20032;-90
2022/03/29 07:12:23;;;;;;;45.90;22.90;;;8.10;99.90;;;;;;5011793;28;20044;-88
2022/03/29 07:14:51;;;;;;;44.03;21.17;;;8.10;99.90;;;;;;5018637;28;20553;-89
2022/03/29 07:17:25;;;;;;;39.78;21.48;;;8.10;99.90;;;;;;5016420;28;20103;-89
2022/03/29 07:19:51;;;;;;;50.58;25.98;;;8.10;99.90;;;;;;5027191;28;20110;-88
2022/03/29 07:22:18;;;;;;;40.15;21.45;;;8.20;99.90;;;;;;5034799;28;20053;-89
2022/03/29 07:24:44;;;;;;;44.38;22.35;;;8.20;99.90;;;;;;4990208;28;20045;-88
2022/03/29 07:27:12;;;;;;;45.15;22.27;;;8.20;99.90;;;;;;5029389;28;20052;-89
2022/03/29 07:29:41;;;;;;;39.75;21.23;;;8.20;99.90;;;;;;5030977;28;20099;-89
2022/03/29 07:32:12;;;;;;;44.33;22.42;;;8.20;99.90;;;;;;5035127;28;20118;-87
2022/03/29 07:34:38;;;;;;;43.50;21.77;;;8.30;99.90;;;;;;5016979;28;20054;-89
2022/03/29 07:37:05;;;;;;;41.85;22.17;;;8.30;99.90;;;;;;5031902;28;20045;-90
2022/03/29 07:39:31;;;;;;;41.22;21.40;;;8.40;99.90;;;;;;5038425;28;20486;-88
2022/03/29 07:42:02;;;;;;;36.45;20.60;;;8.40;99.90;;;;;;5032323;28;20041;-89
2022/03/29 07:44:31;;;;;;;40.08;22.58;;;8.40;99.90;;;;;;5002730;28;20037;-89
2022/03/29 07:47:04;;;;;;;39.45;21.88;;;8.40;99.90;;;;;;5033369;28;20053;-88
2022/03/29 07:49:36;;;;;;;38.63;21.98;;;8.40;99.90;;;;;;5029447;28;20045;-89
2022/03/29 07:52:03;;;;;;;43.97;22.08;;;8.40;99.90;;;;;;4994085;28;20561;-89
2022/03/29 07:54:31;;;;;;;43.45;21.15;;;8.40;99.90;;;;;;5032546;28;20047;-88
2022/03/29 07:56:59;;;;;;;41.58;21.67;;;8.40;99.90;;;;;;5020401;28;20118;-88
2022/03/29 07:59:24;;;;;;;39.47;22.05;;;8.40;99.90;;;;;;5019311;28;20044;-89
2022/03/29 08:01:50;;;;;;;38.60;21.33;;;8.40;99.90;;;;;;5001172;28;20052;-89
2022/03/29 08:04:25;;;;;;;41.72;21.45;;;8.50;99.90;;;;;;5018936;28;20041;-88
2022/03/29 08:06:51;;;;;;;47.05;22.52;;;8.40;99.90;;;;;;5009073;28;20060;-88
2022/03/29 08:12:06;;;;;;;38.97;21.05;;;8.50;99.90;;;;;;5035320;28;20049;-89
2022/03/29 08:14:32;;;;;;;38.78;20.83;;;8.60;99.90;;;;;;5017755;28;20037;-89
2022/03/29 08:17:03;;;;;;;46.75;22.33;;;8.60;99.80;;;;;;5003127;28;20063;-89
2022/03/29 08:19:29;;;;;;;47.53;21.77;;;8.60;99.70;;;;;;5018160;28;20091;-88
2022/03/29 08:22:00;;;;;;;45.15;22.83;;;8.60;99.60;;;;;;5035782;28;20052;-90
2022/03/29 08:24:26;;;;;;;42.63;22.58;;;8.70;99.50;;;;;;5021741;28;20119;-90
2022/03/29 08:26:55;;;;;;;41.97;22.67;;;8.70;99.40;;;;;;5019349;28;20049;-91
2022/03/29 08:29:21;;;;;;;43.78;22.77;;;8.70;99.40;;;;;;5003210;28;20049;-88
2022/03/29 08:31:55;;;;;;;68.90;35.28;;;8.80;99.50;;;;;;5028938;28;20055;-89
2022/03/29 08:34:23;;;;;;;47.72;22.95;;;8.90;99.30;;;;;;5000736;28;20069;-90
2022/03/29 08:36:53;;;;;;;46.92;24.13;;;9.00;99.00;;;;;;5009963;28;20046;-90
2022/03/29 08:39:22;;;;;;;46.13;23.85;;;9.20;98.70;;;;;;5007473;28;20046;-89
2022/03/29 08:42:05;;;;;;;43.22;22.17;;;9.40;98.50;;;;;;4993090;28;20060;-90
2022/03/29 08:44:32;;;;;;;43.85;23.70;;;9.50;98.00;;;;;;4993674;28;20041;-90
2022/03/29 08:47:03;;;;;;;42.72;24.67;;;9.50;97.90;;;;;;4992422;28;20418;-88
2022/03/29 08:49:32;;;;;;;44.92;23.00;;;9.50;97.70;;;;;;4992629;28;20044;-87
2022/03/29 08:52:03;;;;;;;48.97;24.23;;;9.60;97.70;;;;;;4991316;28;20054;-89
2022/03/29 08:54:33;;;;;;;44.97;23.48;;;9.70;97.50;;;;;;5003844;28;20057;-91
2022/03/29 08:57:14;;;;;;;45.40;23.38;;;10.00;97.00;;;;;;4992485;28;20077;-89
2022/03/29 08:59:43;;;;;;;42.53;22.23;;;10.20;96.40;;;;;;4991024;28;20479;-90
2022/03/29 09:02:22;;;;;;;40.97;23.02;;;10.30;96.20;;;;;;4993199;28;20506;-91
2022/03/29 09:05:12;;;;;;;42.63;21.77;;;10.50;95.80;;;;;;4993685;28;20170;-88
2022/03/29 09:08:03;;;;;;;46.50;22.08;;;10.80;95.00;;;;;;5009592;28;20056;-89
2022/03/29 09:11:12;;;;;;;44.22;21.70;;;11.10;94.30;;;;;;5008933;28;20064;-90
2022/03/29 09:13:41;;;;;;;42.13;22.17;;;11.20;92.40;;;;;;4936461;28;20043;-90
2022/03/29 09:16:25;;;;;;;34.97;21.17;;;11.20;93.40;;;;;;4989436;28;20041;-89
2022/03/29 09:19:03;;;;;;;39.67;21.30;;;11.30;92.90;;;;;;4991465;28;20046;-89
2022/03/29 09:21:55;;;;;;;39.90;20.52;;;11.20;92.50;;;;;;4993025;28;20096;-89
2022/03/29 09:24:21;;;;;;;39.67;21.08;;;11.10;92.00;;;;;;4989914;28;20049;-90
2022/03/29 09:26:55;;;;;;;42.53;21.27;;;11.00;92.20;;;;;;5001092;28;20177;-89
2022/03/29 09:29:25;;;;;;;39.70;21.63;;;10.90;92.20;;;;;;4992386;28;20133;-89
2022/03/29 09:32:06;;;;;;;37.22;20.83;;;10.80;92.10;;;;;;4992311;28;20056;-89
2022/03/29 09:34:32;;;;;;;41.65;22.75;;;10.80;92.00;;;;;;5016358;28;20060;-90
2022/03/29 09:37:05;;;;;;;36.67;23.20;;;10.80;92.10;;;;;;5031430;28;20036;-89
2022/03/29 09:40:21;;;;;;;36.58;21.65;;;10.80;91.80;;;;;;5014503;28;20087;-89
2022/03/29 09:43:01;;;;;;;40.10;21.58;;;10.90;91.50;;;;;;5030201;28;20494;-88
2022/03/29 09:45:50;;;;;;;45.58;23.00;;;10.80;91.30;;;;;;5013013;28;20231;-90
2022/03/29 09:48:23;;;;;;;38.90;20.98;;;10.80;91.70;;;;;;5015414;28;20179;-88
2022/03/29 09:50:55;;;;;;;37.75;21.05;;;10.80;91.30;;;;;;5003390;28;20167;-88
2022/03/29 09:53:45;;;;;;;34.38;21.42;;;10.90;91.40;;;;;;5004533;28;20049;-90
2022/03/29 09:56:41;;;;;;;40.97;22.55;;;10.90;90.80;;;;;;5014767;28;20079;-88
2022/03/29 09:59:17;;;;;;;40.28;21.10;;;11.10;90.80;;;;;;5016438;28;20059;-89
2022/03/29 10:01:57;;;;;;;38.33;21.00;;;11.20;90.90;;;;;;5029199;28;20500;-89
2022/03/29 10:04:34;;;;;;;34.17;20.63;;;11.20;90.20;;;;;;5038272;28;20075;-89
2022/03/29 10:07:04;;;;;;;34.38;22.10;;;11.40;90.10;;;;;;5035085;28;20161;-89
2022/03/29 10:09:33;;;;;;;39.45;23.00;;;11.50;89.10;;;;;;5019355;28;20049;-88
2022/03/29 10:12:12;;;;;;;34.83;20.55;;;11.60;89.00;;;;;;5032608;28;20049;-91
2022/03/29 10:14:43;;;;;;;46.83;23.88;;;11.70;88.20;;;;;;5033141;28;20409;-90
2022/03/29 10:17:23;;;;;;;39.45;21.45;;;11.90;88.00;;;;;;5016423;28;20051;-88
2022/03/29 10:19:58;;;;;;;33.03;20.15;;;12.10;86.20;;;;;;5015836;28;20501;-89
2022/03/29 10:22:34;;;;;;;33.90;20.25;;;12.20;84.80;;;;;;5017117;28;20045;-89
2022/03/29 10:25:03;;;;;;;40.55;18.95;;;12.50;84.70;;;;;;5019182;28;20053;-89
2022/03/29 10:27:42;;;;;;;;;;;;;;;;;;;;;
2022/03/29 10:30:34;;;;;;;34.22;20.13;;;13.10;80.80;;;;;;5023041;28;20060;-88
2022/03/29 10:33:18;;;;;;;34.35;18.77;;;13.10;78.40;;;;;;5008604;28;20141;-87
2022/03/29 10:36:12;;;;;;;35.25;18.52;;;13.10;79.50;;;;;;5015143;28;20516;-89
2022/03/29 10:38:47;;;;;;;36.28;18.25;;;13.20;78.80;;;;;;5035561;28;20040;-92
2022/03/29 10:41:28;;;;;;;32.28;18.67;;;13.10;78.40;;;;;;5017384;28;20532;-90
2022/03/29 10:44:04;;;;;;;32.80;18.05;;;12.90;78.90;;;;;;5015766;28;20041;-90
2022/03/29 10:46:46;;;;;;;33.65;18.52;;;13.00;78.90;;;;;;5032611;28;20099;-91
2022/03/29 10:49:32;;;;;;;34.63;19.23;;;13.30;78.30;;;;;;5019919;28;20091;-89
2022/03/29 10:52:06;;;;;;;38.00;18.55;;;13.50;77.10;;;;;;5034434;28;20452;-90
2022/03/29 10:54:36;;;;;;;31.08;17.30;;;13.70;76.30;;;;;;5035379;28;20082;-90
2022/03/29 10:57:07;;;;;;;38.50;18.35;;;14.00;76.00;;;;;;5036860;28;20072;-92
2022/03/29 10:59:34;;;;;;;32.15;16.83;;;14.80;74.40;;;;;;5012221;28;20045;-88
2022/03/29 11:02:15;;;;;;;31.98;18.05;;;15.20;70.50;;;;;;5017716;28;20049;-93
2022/03/29 11:05:04;;;;;;;26.90;15.93;;;15.10;68.30;;;;;;5019674;28;20120;-94
2022/03/29 11:07:37;;;;;;;29.40;15.98;;;14.90;66.80;;;;;;5017417;28;20057;-87
2022/03/29 11:10:23;;;;;;;32.33;14.93;;;14.60;67.80;;;;;;5018081;28;20098;-88
2022/03/29 11:12:54;;;;;;;28.15;14.68;;;14.20;66.60;;;;;;5016381;28;20375;-87
2022/03/29 11:15:27;;;;;;;31.63;15.85;;;13.90;68.40;;;;;;5016249;28;20048;-88
2022/03/29 11:18:01;;;;;;;31.08;15.27;;;13.70;68.40;;;;;;5033277;28;20501;-88
2022/03/29 11:20:40;;;;;;;26.92;14.20;;;14.20;68.40;;;;;;5033910;28;20052;-88
2022/03/29 11:23:09;;;;;;;27.38;14.13;;;14.70;67.00;;;;;;5013038;28;20048;-86
2022/03/29 11:25:41;;;;;;;33.78;14.52;;;14.60;65.90;;;;;;5012024;28;20812;-86
2022/03/29 11:28:09;;;;;;;27.48;13.98;;;14.40;65.80;;;;;;5015509;28;20048;-87
2022/03/29 11:30:35;;;;;;;33.55;14.07;;;14.20;66.00;;;;;;5016810;28;20094;-85
2022/03/29 11:33:08;;;;;;;25.25;14.30;;;14.10;66.00;;;;;;5032301;28;20045;-85
2022/03/29 11:35:39;;;;;;;26.42;13.55;;;14.60;67.90;;;;;;5002234;28;20094;-86
2022/03/29 11:38:11;;;;;;;24.35;13.15;;;16.50;65.50;;;;;;5026505;28;20037;-86
2022/03/29 11:40:38;;;;;;;21.65;12.45;;;18.40;60.10;;;;;;5024786;28;20060;-87
2022/03/29 11:43:10;;;;;;;29.67;13.60;;;19.30;54.30;;;;;;5006981;28;20084;-86
2022/03/29 11:45:47;;;;;;;27.83;12.30;;;18.90;52.30;;;;;;5001445;28;20041;-86
2022/03/29 11:48:17;;;;;;;25.52;12.73;;;17.90;51.80;;;;;;5014459;28;20072;-86
2022/03/29 11:50:52;;;;;;;26.08;12.40;;;17.00;53.60;;;;;;5021147;28;20110;-88
2022/03/29 11:53:28;;;;;;;19.38;11.43;;;16.30;54.70;;;;;;5025790;28;20123;-86
2022/03/29 11:56:00;;;;;;;22.77;11.20;;;15.80;55.40;;;;;;5016965;28;20049;-87
2022/03/29 11:58:46;;;;;;;23.55;11.98;;;15.70;56.60;;;;;;5014683;28;20114;-86
2022/03/29 12:01:18;;;;;;;23.85;11.93;;;16.00;57.10;;;;;;5030540;28;20049;-86
2022/03/29 12:03:52;;;;;;;21.55;11.40;;;16.10;56.10;;;;;;5018231;28;20045;-83
2022/03/29 12:06:24;;;;;;;22.13;11.27;;;16.00;56.10;;;;;;5017184;28;20116;-86
2022/03/29 12:08:57;;;;;;;25.05;11.43;;;16.50;56.50;;;;;;5020789;28;20144;-86
2022/03/29 12:11:24;;;;;;;20.45;10.52;;;17.30;55.20;;;;;;5003910;28;20115;-87
2022/03/29 12:14:05;;;;;;;21.30;10.57;;;18.50;53.50;;;;;;5013211;28;20414;-86
2022/03/29 12:16:42;;;;;;;23.10;12.48;;;19.60;49.20;;;;;;5013608;28;20501;-87
2022/03/29 12:19:13;;;;;;;24.52;11.45;;;19.50;48.10;;;;;;5030238;28;20555;-87
2022/03/29 12:21:42;;;;;;;24.48;11.48;;;18.90;48.20;;;;;;5007720;28;20493;-86
2022/03/29 12:24:09;;;;;;;22.90;10.82;;;18.50;48.90;;;;;;5028763;28;20055;-86
2022/03/29 12:27:04;;;;;;;24.35;10.00;;;17.80;49.10;;;;;;4998153;28;20046;-87
2022/03/29 12:29:31;;;;;;;24.80;10.52;;;17.50;48.70;;;;;;5018034;28;20209;-86
2022/03/29 12:31:59;;;;;;;21.85;10.95;;;17.40;50.00;;;;;;4986101;28;20044;-86
2022/03/29 12:34:27;;;;;;;27.05;11.57;;;16.90;50.50;;;;;;5012565;28;20615;-87
2022/03/29 12:36:59;;;;;;;19.63;11.10;;;16.40;51.90;;;;;;5032926;28;20405;-86
2022/03/29 12:39:35;;;;;;;24.38;11.45;;;16.60;52.50;;;;;;5041112;28;20135;-85
2022/03/29 12:42:01;;;;;;;;;;;17.50;51.10;;;;;;5012480;28;20052;-86
2022/03/29 12:44:43;;;;;;;22.87;10.73;;;18.20;47.60;;;;;;5032474;28;19924;-86
2022/03/29 12:47:10;;;;;;;22.38;11.27;;;18.00;47.40;;;;;;5018415;28;20073;-88
2022/03/29 12:49:39;;;;;;;25.85;10.60;;;17.30;48.90;;;;;;5054107;28;20051;-86
2022/03/29 12:52:07;;;;;;;24.08;10.13;;;17.10;50.00;;;;;;4998807;28;20053;-87
2022/03/29 12:54:52;;;;;;;22.25;12.20;;;17.70;49.00;;;;;;5032523;28;20068;-86
2022/03/29 12:57:34;;;;;;;21.13;9.98;;;18.50;46.90;;;;;;5029631;28;20443;-87
2022/03/29 13:00:16;;;;;;;17.73;8.80;;;19.50;46.90;;;;;;5034824;28;20067;-86